sensor_id;sensor_type;location;lat;lon;timestamp;P1;durP1;ratioP1;P2;durP2;ratioP2
29908;SDS011;36247;51.952;6.146;2023-04-29T00:01:10;60.22;;;31.50;;
29908;SDS011;36247;51.952;6.146;2023-04-29T00:03:36;61.88;;;33.58;;
29908;SDS011;36247;51.952;6.146;2023-04-29T00:06:02;55.85;;;30.65;;
29908;SDS011;36247;51.952;6.146;2023-04-29T00:08:27;62.70;;;33.50;;
29908;SDS011;36247;51.952;6.146;2023-04-29T00:10:53;63.47;;;33.88;;
29908;SDS011;36247;51.952;6.146;2023-04-29T00:13:18;61.85;;;32.50;;
29908;SDS011;36247;51.952;6.146;2023-04-29T00:15:44;65.03;;;35.15;;
29908;SDS011;36247;51.952;6.146;2023-04-29T00:18:09;61.83;;;32.88;;
29908;SDS011;36247;51.952;6.146;2023-04-29T00:20:35;59.97;;;33.17;;
29908;SDS011;36247;51.952;6.146;2023-04-29T00:23:02;59.35;;;31.25;;
29908;SDS011;36247;51.952;6.146;2023-04-29T00:25:28;61.08;;;33.78;;
29908;SDS011;36247;51.952;6.146;2023-04-29T00:27:53;66.03;;;34.28;;
29908;SDS011;36247;51.952;6.146;2023-04-29T00:30:19;66.18;;;34.55;;
29908;SDS011;36247;51.952;6.146;2023-04-29T00:32:45;65.25;;;35.10;;
29908;SDS011;36247;51.952;6.146;2023-04-29T00:35:10;62.35;;;33.90;;
29908;SDS011;36247;51.952;6.146;2023-04-29T00:37:36;71.30;;;34.08;;
29908;SDS011;36247;51.952;6.146;2023-04-29T00:40:02;65.18;;;32.42;;
29908;SDS011;36247;51.952;6.146;2023-04-29T00:42:30;69.00;;;35.10;;
29908;SDS011;36247;51.952;6.146;2023-04-29T00:44:57;63.20;;;35.38;;
29908;SDS011;36247;51.952;6.146;2023-04-29T00:47:22;61.83;;;33.67;;
29908;SDS011;36247;51.952;6.146;2023-04-29T00:49:48;60.13;;;31.83;;
29908;SDS011;36247;51.952;6.146;2023-04-29T00:52:14;56.45;;;30.92;;
29908;SDS011;36247;51.952;6.146;2023-04-29T00:54:42;55.67;;;30.58;;
29908;SDS011;36247;51.952;6.146;2023-04-29T00:57:08;61.05;;;33.70;;
29908;SDS011;36247;51.952;6.146;2023-04-29T00:59:34;62.15;;;30.60;;
29908;SDS011;36247;51.952;6.146;2023-04-29T01:02:01;58.40;;;33.33;;
29908;SDS011;36247;51.952;6.146;2023-04-29T01:04:28;55.53;;;29.90;;
29908;SDS011;36247;51.952;6.146;2023-04-29T01:07:00;59.45;;;31.38;;
29908;SDS011;36247;51.952;6.146;2023-04-29T01:12:30;56.97;;;31.40;;
29908;SDS011;36247;51.952;6.146;2023-04-29T01:15:03;53.67;;;29.90;;
29908;SDS011;36247;51.952;6.146;2023-04-29T01:17:39;49.50;;;27.83;;
29908;SDS011;36247;51.952;6.146;2023-04-29T01:20:09;52.78;;;29.30;;
29908;SDS011;36247;51.952;6.146;2023-04-29T01:22:35;53.55;;;29.67;;
29908;SDS011;36247;51.952;6.146;2023-04-29T01:25:03;50.80;;;29.42;;
29908;SDS011;36247;51.952;6.146;2023-04-29T01:27:51;55.25;;;28.70;;
29908;SDS011;36247;51.952;6.146;2023-04-29T01:36:07;49.28;;;26.73;;
29908;SDS011;36247;51.952;6.146;2023-04-29T01:41:43;55.22;;;31.20;;
29908;SDS011;36247;51.952;6.146;2023-04-29T01:44:27;55.22;;;29.60;;
29908;SDS011;36247;51.952;6.146;2023-04-29T01:46:54;51.25;;;28.45;;
29908;SDS011;36247;51.952;6.146;2023-04-29T01:49:25;56.00;;;30.95;;
29908;SDS011;36247;51.952;6.146;2023-04-29T01:51:52;51.60;;;29.60;;
29908;SDS011;36247;51.952;6.146;2023-04-29T01:54:17;57.38;;;30.58;;
29908;SDS011;36247;51.952;6.146;2023-04-29T01:56:44;50.63;;;29.05;;
29908;SDS011;36247;51.952;6.146;2023-04-29T01:59:22;52.58;;;30.48;;
29908;SDS011;36247;51.952;6.146;2023-04-29T02:02:03;52.10;;;29.15;;
29908;SDS011;36247;51.952;6.146;2023-04-29T02:04:29;53.55;;;30.60;;
29908;SDS011;36247;51.952;6.146;2023-04-29T02:06:58;51.00;;;27.05;;
29908;SDS011;36247;51.952;6.146;2023-04-29T02:09:23;54.63;;;29.75;;
29908;SDS011;36247;51.952;6.146;2023-04-29T02:11:53;51.78;;;28.65;;
29908;SDS011;36247;51.952;6.146;2023-04-29T02:14:19;50.28;;;29.30;;
29908;SDS011;36247;51.952;6.146;2023-04-29T02:16:44;57.70;;;29.13;;
29908;SDS011;36247;51.952;6.146;2023-04-29T02:19:10;52.97;;;26.65;;
29908;SDS011;36247;51.952;6.146;2023-04-29T02:21:37;47.70;;;26.85;;
29908;SDS011;36247;51.952;6.146;2023-04-29T02:24:05;51.90;;;26.33;;
29908;SDS011;36247;51.952;6.146;2023-04-29T02:26:30;46.42;;;25.27;;
29908;SDS011;36247;51.952;6.146;2023-04-29T02:28:57;40.20;;;24.05;;
29908;SDS011;36247;51.952;6.146;2023-04-29T02:31:22;48.70;;;25.50;;
29908;SDS011;36247;51.952;6.146;2023-04-29T02:33:48;41.00;;;22.92;;
29908;SDS011;36247;51.952;6.146;2023-04-29T02:36:13;44.80;;;23.60;;
29908;SDS011;36247;51.952;6.146;2023-04-29T02:38:39;41.00;;;22.60;;
29908;SDS011;36247;51.952;6.146;2023-04-29T02:41:05;38.65;;;21.92;;
29908;SDS011;36247;51.952;6.146;2023-04-29T02:43:31;34.22;;;21.95;;
29908;SDS011;36247;51.952;6.146;2023-04-29T02:45:57;38.22;;;20.95;;
29908;SDS011;36247;51.952;6.146;2023-04-29T02:48:24;37.05;;;22.00;;
29908;SDS011;36247;51.952;6.146;2023-04-29T02:50:49;38.63;;;22.42;;
29908;SDS011;36247;51.952;6.146;2023-04-29T02:53:15;35.67;;;20.63;;
29908;SDS011;36247;51.952;6.146;2023-04-29T02:55:41;38.35;;;20.80;;
29908;SDS011;36247;51.952;6.146;2023-04-29T02:58:09;37.78;;;21.73;;
29908;SDS011;36247;51.952;6.146;2023-04-29T03:00:34;37.17;;;21.63;;
29908;SDS011;36247;51.952;6.146;2023-04-29T03:03:00;34.67;;;21.83;;
29908;SDS011;36247;51.952;6.146;2023-04-29T03:05:26;32.78;;;20.40;;
29908;SDS011;36247;51.952;6.146;2023-04-29T03:07:52;35.67;;;20.70;;
29908;SDS011;36247;51.952;6.146;2023-04-29T03:10:17;37.35;;;20.13;;
29908;SDS011;36247;51.952;6.146;2023-04-29T03:12:43;35.90;;;22.48;;
29908;SDS011;36247;51.952;6.146;2023-04-29T03:15:09;33.45;;;21.45;;
29908;SDS011;36247;51.952;6.146;2023-04-29T03:17:35;36.15;;;21.73;;
29908;SDS011;36247;51.952;6.146;2023-04-29T03:20:02;35.70;;;22.02;;
29908;SDS011;36247;51.952;6.146;2023-04-29T03:22:28;38.88;;;22.98;;
29908;SDS011;36247;51.952;6.146;2023-04-29T03:24:53;39.17;;;21.52;;
29908;SDS011;36247;51.952;6.146;2023-04-29T03:27:20;35.47;;;21.50;;
29908;SDS011;36247;51.952;6.146;2023-04-29T03:29:45;37.55;;;21.33;;
29908;SDS011;36247;51.952;6.146;2023-04-29T03:32:11;39.45;;;21.42;;
29908;SDS011;36247;51.952;6.146;2023-04-29T03:34:37;33.88;;;20.30;;
29908;SDS011;36247;51.952;6.146;2023-04-29T03:37:17;34.17;;;21.63;;
29908;SDS011;36247;51.952;6.146;2023-04-29T03:39:46;35.33;;;21.08;;
29908;SDS011;36247;51.952;6.146;2023-04-29T03:42:12;33.22;;;21.05;;
29908;SDS011;36247;51.952;6.146;2023-04-29T03:44:38;34.22;;;21.02;;
29908;SDS011;36247;51.952;6.146;2023-04-29T03:47:04;38.03;;;21.13;;
29908;SDS011;36247;51.952;6.146;2023-04-29T03:49:31;35.22;;;21.02;;
29908;SDS011;36247;51.952;6.146;2023-04-29T03:51:57;33.45;;;20.05;;
29908;SDS011;36247;51.952;6.146;2023-04-29T03:54:22;35.30;;;21.02;;
29908;SDS011;36247;51.952;6.146;2023-04-29T03:56:48;34.35;;;20.38;;
29908;SDS011;36247;51.952;6.146;2023-04-29T03:59:13;33.67;;;20.17;;
29908;SDS011;36247;51.952;6.146;2023-04-29T04:01:40;35.78;;;21.50;;
29908;SDS011;36247;51.952;6.146;2023-04-29T04:04:06;33.47;;;20.73;;
29908;SDS011;36247;51.952;6.146;2023-04-29T04:06:34;31.88;;;19.90;;
29908;SDS011;36247;51.952;6.146;2023-04-29T04:09:00;33.80;;;20.55;;
29908;SDS011;36247;51.952;6.146;2023-04-29T04:11:28;36.30;;;22.25;;
29908;SDS011;36247;51.952;6.146;2023-04-29T04:13:56;36.38;;;20.48;;
29908;SDS011;36247;51.952;6.146;2023-04-29T04:16:22;35.00;;;22.45;;
29908;SDS011;36247;51.952;6.146;2023-04-29T04:18:48;35.33;;;21.52;;
29908;SDS011;36247;51.952;6.146;2023-04-29T04:21:13;38.33;;;22.05;;
29908;SDS011;36247;51.952;6.146;2023-04-29T04:23:43;38.30;;;23.45;;
29908;SDS011;36247;51.952;6.146;2023-04-29T04:26:12;36.58;;;22.08;;
29908;SDS011;36247;51.952;6.146;2023-04-29T04:28:46;36.90;;;21.88;;
29908;SDS011;36247;51.952;6.146;2023-04-29T04:31:19;37.00;;;23.27;;
29908;SDS011;36247;51.952;6.146;2023-04-29T04:33:45;33.80;;;22.55;;
29908;SDS011;36247;51.952;6.146;2023-04-29T04:36:11;35.20;;;21.90;;
29908;SDS011;36247;51.952;6.146;2023-04-29T04:38:37;38.17;;;23.33;;
29908;SDS011;36247;51.952;6.146;2023-04-29T04:41:08;36.35;;;23.73;;
29908;SDS011;36247;51.952;6.146;2023-04-29T04:43:36;36.50;;;21.63;;
29908;SDS011;36247;51.952;6.146;2023-04-29T04:46:11;36.50;;;22.83;;
29908;SDS011;36247;51.952;6.146;2023-04-29T04:48:42;41.53;;;23.23;;
29908;SDS011;36247;51.952;6.146;2023-04-29T04:51:10;41.30;;;23.65;;
29908;SDS011;36247;51.952;6.146;2023-04-29T04:53:37;47.40;;;24.48;;
29908;SDS011;36247;51.952;6.146;2023-04-29T04:56:07;33.08;;;21.08;;
29908;SDS011;36247;51.952;6.146;2023-04-29T04:58:34;34.97;;;22.00;;
29908;SDS011;36247;51.952;6.146;2023-04-29T05:01:00;35.83;;;21.60;;
29908;SDS011;36247;51.952;6.146;2023-04-29T05:03:27;37.80;;;22.67;;
29908;SDS011;36247;51.952;6.146;2023-04-29T05:05:57;35.05;;;21.00;;
29908;SDS011;36247;51.952;6.146;2023-04-29T05:08:24;35.13;;;22.23;;
29908;SDS011;36247;51.952;6.146;2023-04-29T05:10:51;31.00;;;20.48;;
29908;SDS011;36247;51.952;6.146;2023-04-29T05:13:19;36.20;;;21.38;;
29908;SDS011;36247;51.952;6.146;2023-04-29T05:15:45;34.65;;;20.77;;
29908;SDS011;36247;51.952;6.146;2023-04-29T05:18:12;32.53;;;21.25;;
29908;SDS011;36247;51.952;6.146;2023-04-29T05:20:41;36.03;;;22.10;;
29908;SDS011;36247;51.952;6.146;2023-04-29T05:23:07;38.53;;;22.58;;
29908;SDS011;36247;51.952;6.146;2023-04-29T05:25:37;32.95;;;21.85;;
29908;SDS011;36247;51.952;6.146;2023-04-29T05:28:04;32.55;;;21.88;;
29908;SDS011;36247;51.952;6.146;2023-04-29T05:30:33;37.30;;;22.92;;
29908;SDS011;36247;51.952;6.146;2023-04-29T05:32:59;38.72;;;22.33;;
29908;SDS011;36247;51.952;6.146;2023-04-29T05:35:26;34.65;;;22.27;;
29908;SDS011;36247;51.952;6.146;2023-04-29T05:37:53;41.47;;;21.85;;
29908;SDS011;36247;51.952;6.146;2023-04-29T05:40:37;39.42;;;22.73;;
29908;SDS011;36247;51.952;6.146;2023-04-29T05:43:26;35.53;;;22.50;;
29908;SDS011;36247;51.952;6.146;2023-04-29T05:45:52;42.28;;;23.30;;
29908;SDS011;36247;51.952;6.146;2023-04-29T05:48:18;36.42;;;22.05;;
29908;SDS011;36247;51.952;6.146;2023-04-29T05:50:43;36.53;;;23.13;;
29908;SDS011;36247;51.952;6.146;2023-04-29T05:53:09;40.90;;;22.30;;
29908;SDS011;36247;51.952;6.146;2023-04-29T05:55:36;35.90;;;24.05;;
29908;SDS011;36247;51.952;6.146;2023-04-29T05:58:01;36.13;;;23.75;;
29908;SDS011;36247;51.952;6.146;2023-04-29T06:00:27;41.50;;;23.98;;
29908;SDS011;36247;51.952;6.146;2023-04-29T06:02:59;36.38;;;22.00;;
29908;SDS011;36247;51.952;6.146;2023-04-29T06:05:26;39.42;;;24.13;;
29908;SDS011;36247;51.952;6.146;2023-04-29T06:08:06;42.90;;;24.13;;
29908;SDS011;36247;51.952;6.146;2023-04-29T06:10:52;37.35;;;24.33;;
29908;SDS011;36247;51.952;6.146;2023-04-29T06:13:18;34.35;;;22.98;;
29908;SDS011;36247;51.952;6.146;2023-04-29T06:15:43;38.67;;;21.98;;
29908;SDS011;36247;51.952;6.146;2023-04-29T06:18:09;38.47;;;22.67;;
29908;SDS011;36247;51.952;6.146;2023-04-29T06:20:34;38.55;;;23.15;;
29908;SDS011;36247;51.952;6.146;2023-04-29T06:23:00;38.28;;;22.50;;
29908;SDS011;36247;51.952;6.146;2023-04-29T06:25:27;36.28;;;22.88;;
29908;SDS011;36247;51.952;6.146;2023-04-29T06:27:53;34.60;;;23.90;;
29908;SDS011;36247;51.952;6.146;2023-04-29T06:30:29;42.65;;;23.45;;
29908;SDS011;36247;51.952;6.146;2023-04-29T06:32:55;36.17;;;23.13;;
29908;SDS011;36247;51.952;6.146;2023-04-29T06:35:21;37.05;;;24.23;;
29908;SDS011;36247;51.952;6.146;2023-04-29T06:37:49;37.25;;;22.77;;
29908;SDS011;36247;51.952;6.146;2023-04-29T06:40:45;33.45;;;23.33;;
29908;SDS011;36247;51.952;6.146;2023-04-29T06:43:17;35.75;;;21.83;;
29908;SDS011;36247;51.952;6.146;2023-04-29T06:46:03;36.92;;;23.55;;
29908;SDS011;36247;51.952;6.146;2023-04-29T06:48:52;37.03;;;23.38;;
29908;SDS011;36247;51.952;6.146;2023-04-29T06:51:18;36.70;;;22.70;;
29908;SDS011;36247;51.952;6.146;2023-04-29T06:53:44;37.80;;;23.08;;
29908;SDS011;36247;51.952;6.146;2023-04-29T06:56:10;38.53;;;24.52;;
29908;SDS011;36247;51.952;6.146;2023-04-29T06:58:36;36.30;;;22.63;;
29908;SDS011;36247;51.952;6.146;2023-04-29T07:01:03;38.00;;;24.15;;
29908;SDS011;36247;51.952;6.146;2023-04-29T07:03:30;33.83;;;20.65;;
29908;SDS011;36247;51.952;6.146;2023-04-29T07:05:56;38.53;;;23.42;;
29908;SDS011;36247;51.952;6.146;2023-04-29T07:08:22;36.70;;;22.65;;
29908;SDS011;36247;51.952;6.146;2023-04-29T07:10:54;40.42;;;24.15;;
29908;SDS011;36247;51.952;6.146;2023-04-29T07:13:22;69.60;;;37.35;;
29908;SDS011;36247;51.952;6.146;2023-04-29T07:15:49;44.20;;;24.10;;
29908;SDS011;36247;51.952;6.146;2023-04-29T07:18:15;37.58;;;24.40;;
29908;SDS011;36247;51.952;6.146;2023-04-29T07:20:41;35.78;;;23.15;;
29908;SDS011;36247;51.952;6.146;2023-04-29T07:23:08;40.35;;;24.77;;
29908;SDS011;36247;51.952;6.146;2023-04-29T07:25:33;37.65;;;23.83;;
29908;SDS011;36247;51.952;6.146;2023-04-29T07:28:00;38.30;;;24.00;;
29908;SDS011;36247;51.952;6.146;2023-04-29T07:30:26;31.73;;;21.52;;
29908;SDS011;36247;51.952;6.146;2023-04-29T07:32:51;36.85;;;21.20;;
29908;SDS011;36247;51.952;6.146;2023-04-29T07:35:17;35.13;;;22.30;;
29908;SDS011;36247;51.952;6.146;2023-04-29T07:37:43;38.67;;;21.63;;
29908;SDS011;36247;51.952;6.146;2023-04-29T07:40:10;36.35;;;21.95;;
29908;SDS011;36247;51.952;6.146;2023-04-29T07:42:37;38.85;;;22.17;;
29908;SDS011;36247;51.952;6.146;2023-04-29T07:45:05;43.13;;;23.13;;
29908;SDS011;36247;51.952;6.146;2023-04-29T07:47:33;34.40;;;22.58;;
29908;SDS011;36247;51.952;6.146;2023-04-29T07:49:59;39.03;;;23.33;;
29908;SDS011;36247;51.952;6.146;2023-04-29T07:52:25;37.28;;;23.02;;
29908;SDS011;36247;51.952;6.146;2023-04-29T07:54:51;31.90;;;19.85;;
29908;SDS011;36247;51.952;6.146;2023-04-29T07:57:16;36.72;;;22.90;;
29908;SDS011;36247;51.952;6.146;2023-04-29T07:59:42;35.47;;;21.98;;
29908;SDS011;36247;51.952;6.146;2023-04-29T08:02:08;30.58;;;20.42;;
29908;SDS011;36247;51.952;6.146;2023-04-29T08:04:34;39.45;;;23.00;;
29908;SDS011;36247;51.952;6.146;2023-04-29T08:07:09;35.30;;;18.80;;
29908;SDS011;36247;51.952;6.146;2023-04-29T08:09:35;31.10;;;18.88;;
29908;SDS011;36247;51.952;6.146;2023-04-29T08:12:03;32.28;;;18.63;;
29908;SDS011;36247;51.952;6.146;2023-04-29T08:14:31;37.15;;;20.20;;
29908;SDS011;36247;51.952;6.146;2023-04-29T08:16:58;34.40;;;19.70;;
29908;SDS011;36247;51.952;6.146;2023-04-29T08:19:24;34.60;;;19.58;;
29908;SDS011;36247;51.952;6.146;2023-04-29T08:21:50;26.83;;;18.45;;
29908;SDS011;36247;51.952;6.146;2023-04-29T08:24:16;29.02;;;17.50;;
29908;SDS011;36247;51.952;6.146;2023-04-29T08:26:42;27.27;;;18.40;;
29908;SDS011;36247;51.952;6.146;2023-04-29T08:29:08;28.27;;;18.55;;
29908;SDS011;36247;51.952;6.146;2023-04-29T08:31:34;28.40;;;18.83;;
29908;SDS011;36247;51.952;6.146;2023-04-29T08:33:59;25.90;;;17.25;;
29908;SDS011;36247;51.952;6.146;2023-04-29T08:36:25;28.33;;;17.85;;
29908;SDS011;36247;51.952;6.146;2023-04-29T08:38:52;27.92;;;17.77;;
29908;SDS011;36247;51.952;6.146;2023-04-29T08:41:18;32.28;;;18.33;;
29908;SDS011;36247;51.952;6.146;2023-04-29T08:43:44;28.90;;;16.38;;
29908;SDS011;36247;51.952;6.146;2023-04-29T08:46:09;23.77;;;15.98;;
29908;SDS011;36247;51.952;6.146;2023-04-29T08:48:36;25.13;;;15.70;;
29908;SDS011;36247;51.952;6.146;2023-04-29T08:51:04;30.77;;;17.33;;
29908;SDS011;36247;51.952;6.146;2023-04-29T08:53:32;26.30;;;16.65;;
29908;SDS011;36247;51.952;6.146;2023-04-29T08:55:59;27.67;;;17.20;;
29908;SDS011;36247;51.952;6.146;2023-04-29T08:58:34;26.73;;;16.05;;
29908;SDS011;36247;51.952;6.146;2023-04-29T09:01:09;26.98;;;17.20;;
29908;SDS011;36247;51.952;6.146;2023-04-29T09:03:43;26.67;;;16.13;;
29908;SDS011;36247;51.952;6.146;2023-04-29T09:06:15;26.20;;;16.45;;
29908;SDS011;36247;51.952;6.146;2023-04-29T09:08:42;22.67;;;16.00;;
29908;SDS011;36247;51.952;6.146;2023-04-29T09:11:08;23.33;;;16.10;;
29908;SDS011;36247;51.952;6.146;2023-04-29T09:13:37;24.65;;;15.30;;
29908;SDS011;36247;51.952;6.146;2023-04-29T09:16:09;23.42;;;16.13;;
29908;SDS011;36247;51.952;6.146;2023-04-29T09:18:45;25.77;;;16.60;;
29908;SDS011;36247;51.952;6.146;2023-04-29T09:21:13;27.27;;;16.83;;
29908;SDS011;36247;51.952;6.146;2023-04-29T09:23:53;25.92;;;14.98;;
29908;SDS011;36247;51.952;6.146;2023-04-29T09:26:20;27.42;;;15.55;;
29908;SDS011;36247;51.952;6.146;2023-04-29T09:29:04;19.85;;;15.45;;
29908;SDS011;36247;51.952;6.146;2023-04-29T09:31:38;22.27;;;15.38;;
29908;SDS011;36247;51.952;6.146;2023-04-29T09:34:05;24.50;;;14.73;;
29908;SDS011;36247;51.952;6.146;2023-04-29T09:39:11;24.83;;;14.52;;
29908;SDS011;36247;51.952;6.146;2023-04-29T09:41:39;19.15;;;12.55;;
29908;SDS011;36247;51.952;6.146;2023-04-29T09:44:17;24.10;;;13.82;;
29908;SDS011;36247;51.952;6.146;2023-04-29T09:46:57;19.02;;;12.50;;
29908;SDS011;36247;51.952;6.146;2023-04-29T09:49:26;16.40;;;12.13;;
29908;SDS011;36247;51.952;6.146;2023-04-29T09:51:57;20.67;;;13.40;;
29908;SDS011;36247;51.952;6.146;2023-04-29T09:54:25;24.00;;;14.55;;
29908;SDS011;36247;51.952;6.146;2023-04-29T09:56:55;19.55;;;14.65;;
29908;SDS011;36247;51.952;6.146;2023-04-29T09:59:22;20.58;;;13.38;;
29908;SDS011;36247;51.952;6.146;2023-04-29T10:01:49;15.77;;;12.35;;
29908;SDS011;36247;51.952;6.146;2023-04-29T10:04:17;18.15;;;12.20;;
29908;SDS011;36247;51.952;6.146;2023-04-29T10:06:45;20.30;;;13.18;;
29908;SDS011;36247;51.952;6.146;2023-04-29T10:09:13;15.70;;;10.43;;
29908;SDS011;36247;51.952;6.146;2023-04-29T10:11:43;17.85;;;12.32;;
29908;SDS011;36247;51.952;6.146;2023-04-29T10:14:11;18.48;;;12.15;;
29908;SDS011;36247;51.952;6.146;2023-04-29T10:16:49;17.70;;;10.98;;
29908;SDS011;36247;51.952;6.146;2023-04-29T10:19:24;14.43;;;11.02;;
29908;SDS011;36247;51.952;6.146;2023-04-29T10:21:57;14.52;;;10.05;;
29908;SDS011;36247;51.952;6.146;2023-04-29T10:24:31;19.08;;;11.82;;
29908;SDS011;36247;51.952;6.146;2023-04-29T10:26:59;19.08;;;10.68;;
29908;SDS011;36247;51.952;6.146;2023-04-29T10:29:27;12.15;;;9.52;;
29908;SDS011;36247;51.952;6.146;2023-04-29T10:31:55;15.40;;;9.90;;
29908;SDS011;36247;51.952;6.146;2023-04-29T10:34:22;13.55;;;9.52;;
29908;SDS011;36247;51.952;6.146;2023-04-29T10:36:49;11.57;;;10.05;;
29908;SDS011;36247;51.952;6.146;2023-04-29T10:39:20;15.88;;;10.88;;
29908;SDS011;36247;51.952;6.146;2023-04-29T10:41:54;13.48;;;9.77;;
29908;SDS011;36247;51.952;6.146;2023-04-29T10:44:21;15.13;;;9.60;;
29908;SDS011;36247;51.952;6.146;2023-04-29T10:46:48;14.35;;;9.63;;
29908;SDS011;36247;51.952;6.146;2023-04-29T10:49:14;8.98;;;7.97;;
29908;SDS011;36247;51.952;6.146;2023-04-29T10:51:40;11.57;;;8.90;;
29908;SDS011;36247;51.952;6.146;2023-04-29T10:54:11;10.57;;;8.82;;
29908;SDS011;36247;51.952;6.146;2023-04-29T10:59:04;10.00;;;7.88;;
29908;SDS011;36247;51.952;6.146;2023-04-29T11:01:46;10.50;;;8.88;;
29908;SDS011;36247;51.952;6.146;2023-04-29T11:04:13;17.63;;;9.55;;
29908;SDS011;36247;51.952;6.146;2023-04-29T11:06:41;12.18;;;9.52;;
29908;SDS011;36247;51.952;6.146;2023-04-29T11:09:10;12.10;;;9.40;;
29908;SDS011;36247;51.952;6.146;2023-04-29T11:11:52;11.63;;;8.88;;
29908;SDS011;36247;51.952;6.146;2023-04-29T11:16:55;11.95;;;9.07;;
29908;SDS011;36247;51.952;6.146;2023-04-29T11:19:23;12.18;;;8.65;;
29908;SDS011;36247;51.952;6.146;2023-04-29T11:22:02;10.40;;;8.43;;
29908;SDS011;36247;51.952;6.146;2023-04-29T11:24:47;10.30;;;7.75;;
29908;SDS011;36247;51.952;6.146;2023-04-29T11:27:14;11.75;;;7.75;;
29908;SDS011;36247;51.952;6.146;2023-04-29T11:29:40;11.43;;;8.63;;
29908;SDS011;36247;51.952;6.146;2023-04-29T11:32:06;9.77;;;7.30;;
29908;SDS011;36247;51.952;6.146;2023-04-29T11:34:33;9.65;;;7.68;;
29908;SDS011;36247;51.952;6.146;2023-04-29T11:36:58;9.20;;;7.45;;
29908;SDS011;36247;51.952;6.146;2023-04-29T11:39:25;10.13;;;7.80;;
29908;SDS011;36247;51.952;6.146;2023-04-29T11:41:51;9.70;;;6.28;;
29908;SDS011;36247;51.952;6.146;2023-04-29T11:44:27;8.70;;;7.35;;
29908;SDS011;36247;51.952;6.146;2023-04-29T11:46:59;9.95;;;7.53;;
29908;SDS011;36247;51.952;6.146;2023-04-29T11:49:29;6.93;;;6.20;;
29908;SDS011;36247;51.952;6.146;2023-04-29T11:51:58;8.90;;;6.65;;
29908;SDS011;36247;51.952;6.146;2023-04-29T11:54:25;8.45;;;6.63;;
29908;SDS011;36247;51.952;6.146;2023-04-29T11:56:52;8.43;;;6.60;;
29908;SDS011;36247;51.952;6.146;2023-04-29T11:59:19;10.68;;;6.68;;
29908;SDS011;36247;51.952;6.146;2023-04-29T12:01:46;9.38;;;6.72;;
29908;SDS011;36247;51.952;6.146;2023-04-29T12:04:15;8.45;;;6.85;;
29908;SDS011;36247;51.952;6.146;2023-04-29T12:06:43;11.48;;;7.68;;
29908;SDS011;36247;51.952;6.146;2023-04-29T12:09:09;9.05;;;6.50;;
29908;SDS011;36247;51.952;6.146;2023-04-29T12:11:38;12.25;;;7.63;;
29908;SDS011;36247;51.952;6.146;2023-04-29T12:14:04;8.05;;;6.63;;
29908;SDS011;36247;51.952;6.146;2023-04-29T12:16:32;11.13;;;6.93;;
29908;SDS011;36247;51.952;6.146;2023-04-29T12:18:58;11.88;;;7.10;;
29908;SDS011;36247;51.952;6.146;2023-04-29T12:21:24;11.75;;;6.90;;
29908;SDS011;36247;51.952;6.146;2023-04-29T12:23:51;9.82;;;6.60;;
29908;SDS011;36247;51.952;6.146;2023-04-29T12:26:17;9.60;;;7.45;;
29908;SDS011;36247;51.952;6.146;2023-04-29T12:28:45;9.52;;;5.93;;
29908;SDS011;36247;51.952;6.146;2023-04-29T12:31:13;9.27;;;6.28;;
29908;SDS011;36247;51.952;6.146;2023-04-29T12:33:41;8.00;;;6.15;;
29908;SDS011;36247;51.952;6.146;2023-04-29T12:36:17;6.85;;;5.90;;
29908;SDS011;36247;51.952;6.146;2023-04-29T12:38:43;7.75;;;5.70;;
29908;SDS011;36247;51.952;6.146;2023-04-29T12:41:09;8.63;;;5.90;;
29908;SDS011;36247;51.952;6.146;2023-04-29T12:43:35;8.88;;;6.70;;
29908;SDS011;36247;51.952;6.146;2023-04-29T12:46:06;7.30;;;5.93;;
29908;SDS011;36247;51.952;6.146;2023-04-29T12:48:34;9.63;;;6.82;;
29908;SDS011;36247;51.952;6.146;2023-04-29T12:51:08;7.72;;;6.25;;
29908;SDS011;36247;51.952;6.146;2023-04-29T12:53:34;10.18;;;6.90;;
29908;SDS011;36247;51.952;6.146;2023-04-29T12:56:01;12.32;;;6.53;;
29908;SDS011;36247;51.952;6.146;2023-04-29T12:58:28;13.43;;;7.10;;
29908;SDS011;36247;51.952;6.146;2023-04-29T13:00:58;7.55;;;5.97;;
29908;SDS011;36247;51.952;6.146;2023-04-29T13:03:24;9.00;;;6.28;;
29908;SDS011;36247;51.952;6.146;2023-04-29T13:05:49;12.63;;;5.32;;
29908;SDS011;36247;51.952;6.146;2023-04-29T13:08:17;9.43;;;6.57;;
29908;SDS011;36247;51.952;6.146;2023-04-29T13:10:42;10.35;;;6.05;;
29908;SDS011;36247;51.952;6.146;2023-04-29T13:13:08;6.03;;;5.07;;
29908;SDS011;36247;51.952;6.146;2023-04-29T13:15:34;7.82;;;5.80;;
29908;SDS011;36247;51.952;6.146;2023-04-29T13:18:05;7.63;;;5.15;;
29908;SDS011;36247;51.952;6.146;2023-04-29T13:20:32;6.30;;;5.53;;
29908;SDS011;36247;51.952;6.146;2023-04-29T13:22:58;6.07;;;5.18;;
29908;SDS011;36247;51.952;6.146;2023-04-29T13:25:23;6.00;;;5.03;;
29908;SDS011;36247;51.952;6.146;2023-04-29T13:27:52;9.48;;;4.70;;
29908;SDS011;36247;51.952;6.146;2023-04-29T13:30:17;5.60;;;4.90;;
29908;SDS011;36247;51.952;6.146;2023-04-29T13:32:43;6.82;;;5.47;;
29908;SDS011;36247;51.952;6.146;2023-04-29T13:35:08;6.07;;;4.85;;
29908;SDS011;36247;51.952;6.146;2023-04-29T13:37:34;9.02;;;5.13;;
29908;SDS011;36247;51.952;6.146;2023-04-29T13:39:59;7.00;;;5.68;;
29908;SDS011;36247;51.952;6.146;2023-04-29T13:42:25;5.93;;;5.32;;
29908;SDS011;36247;51.952;6.146;2023-04-29T13:44:51;8.07;;;5.32;;
29908;SDS011;36247;51.952;6.146;2023-04-29T13:47:19;8.18;;;5.38;;
29908;SDS011;36247;51.952;6.146;2023-04-29T13:49:46;5.28;;;4.43;;
29908;SDS011;36247;51.952;6.146;2023-04-29T13:52:12;6.82;;;4.60;;
29908;SDS011;36247;51.952;6.146;2023-04-29T13:54:38;8.27;;;5.00;;
29908;SDS011;36247;51.952;6.146;2023-04-29T13:57:04;7.40;;;5.00;;
29908;SDS011;36247;51.952;6.146;2023-04-29T13:59:32;6.30;;;5.35;;
29908;SDS011;36247;51.952;6.146;2023-04-29T14:01:59;7.05;;;4.85;;
29908;SDS011;36247;51.952;6.146;2023-04-29T14:04:26;6.38;;;4.55;;
29908;SDS011;36247;51.952;6.146;2023-04-29T14:06:52;6.30;;;4.60;;
29908;SDS011;36247;51.952;6.146;2023-04-29T14:09:18;7.30;;;4.47;;
29908;SDS011;36247;51.952;6.146;2023-04-29T14:11:44;5.18;;;4.38;;
29908;SDS011;36247;51.952;6.146;2023-04-29T14:14:10;7.97;;;4.70;;
29908;SDS011;36247;51.952;6.146;2023-04-29T14:16:36;6.18;;;4.30;;
29908;SDS011;36247;51.952;6.146;2023-04-29T14:19:02;6.13;;;4.88;;
29908;SDS011;36247;51.952;6.146;2023-04-29T14:21:28;7.22;;;5.03;;
29908;SDS011;36247;51.952;6.146;2023-04-29T14:23:57;5.38;;;4.50;;
29908;SDS011;36247;51.952;6.146;2023-04-29T14:26:23;7.07;;;4.45;;
29908;SDS011;36247;51.952;6.146;2023-04-29T14:28:49;5.70;;;4.32;;
29908;SDS011;36247;51.952;6.146;2023-04-29T14:31:24;6.10;;;4.60;;
29908;SDS011;36247;51.952;6.146;2023-04-29T14:33:49;6.53;;;5.25;;
29908;SDS011;36247;51.952;6.146;2023-04-29T14:36:15;5.82;;;4.50;;
29908;SDS011;36247;51.952;6.146;2023-04-29T14:38:42;7.28;;;5.07;;
29908;SDS011;36247;51.952;6.146;2023-04-29T14:41:08;5.78;;;4.03;;
29908;SDS011;36247;51.952;6.146;2023-04-29T14:43:34;6.00;;;4.55;;
29908;SDS011;36247;51.952;6.146;2023-04-29T14:46:00;6.65;;;4.05;;
29908;SDS011;36247;51.952;6.146;2023-04-29T14:48:26;6.70;;;5.15;;
29908;SDS011;36247;51.952;6.146;2023-04-29T14:50:53;7.88;;;4.47;;
29908;SDS011;36247;51.952;6.146;2023-04-29T14:53:19;7.97;;;4.28;;